createdAt,value
2023-03-21T04:05:11.294Z,26.58
2023-03-21T04:06:11.317Z,26.57
2023-03-21T04:07:11.335Z,26.60
2023-03-21T04:08:11.355Z,26.57
2023-03-21T04:09:20.520Z,26.57
2023-03-21T04:11:11.369Z,26.55
2023-03-21T04:12:11.368Z,26.57
2023-03-21T04:13:11.378Z,26.55
2023-03-21T04:14:11.389Z,26.51
2023-03-21T04:15:11.502Z,26.55
2023-03-21T04:16:11.352Z,26.50
2023-03-21T04:17:11.364Z,26.47
2023-03-21T04:18:11.367Z,26.46
2023-03-21T04:19:11.322Z,26.49
2023-03-21T04:20:16.726Z,26.44
2023-03-21T04:22:11.295Z,26.44
2023-03-21T04:23:11.333Z,26.37
2023-03-21T04:24:11.299Z,26.33
2023-03-21T04:25:11.295Z,26.29
2023-03-21T04:26:11.307Z,26.27
2023-03-21T04:27:11.305Z,26.25
2023-03-21T04:28:11.265Z,26.22
2023-03-21T04:29:11.278Z,26.17
2023-03-21T04:37:11.284Z,25.95
2023-03-21T04:38:11.256Z,25.98
2023-03-21T04:39:11.271Z,25.94
2023-03-21T04:40:11.325Z,25.94
2023-03-21T04:41:11.303Z,25.98
2023-03-21T04:42:11.333Z,25.95
2023-03-21T04:43:11.326Z,25.92
2023-03-21T04:44:11.346Z,25.84
2023-03-21T04:51:11.549Z,25.83
2023-03-21T04:52:11.565Z,25.84
2023-03-21T04:53:11.562Z,25.87
2023-03-21T04:54:11.532Z,25.83
2023-03-21T04:55:11.566Z,25.90
2023-03-21T04:56:11.575Z,25.84
2023-03-21T04:57:11.607Z,25.80
2023-03-21T04:58:11.644Z,25.83
2023-03-21T04:59:11.648Z,25.81
2023-03-21T05:00:11.688Z,25.80
2023-03-21T05:01:11.769Z,25.83
2023-03-21T05:02:11.767Z,25.81
2023-03-21T05:03:11.727Z,25.84
2023-03-21T05:04:11.903Z,25.77
2023-03-21T05:05:11.826Z,25.84
2023-03-21T05:06:11.844Z,25.87
2023-03-21T05:07:11.887Z,25.90
2023-03-21T05:08:11.919Z,25.81
2023-03-21T05:13:12.085Z,25.83
2023-03-21T08:30:15.991Z,27.38
2023-03-21T08:31:16.123Z,27.55
2023-03-21T08:32:16.108Z,27.78
2023-03-21T08:33:16.187Z,27.74
2023-03-21T08:34:16.190Z,29.02
2023-03-21T08:35:16.241Z,27.71
2023-03-21T08:36:16.273Z,28.89
2023-03-21T08:37:16.276Z,28.12
2023-03-21T08:38:16.348Z,27.51
2023-03-21T08:39:16.365Z,27.50
2023-03-21T08:40:16.417Z,27.58
2023-03-21T08:41:16.417Z,28.88
2023-03-21T08:42:16.456Z,28.63
2023-03-21T10:09:18.040Z,29.53
2023-03-21T10:22:18.331Z,28.99
2023-03-21T10:30:18.478Z,28.96
2023-03-21T11:11:20.220Z,27.17
2023-03-21T11:44:19.081Z,33.07
2023-03-21T13:44:22.773Z,29.75
2023-03-21T13:56:22.809Z,29.84
2023-03-21T14:01:22.780Z,29.78
2023-03-21T14:02:22.745Z,29.69
2023-03-21T14:03:22.807Z,29.55
2023-03-21T14:04:27.160Z,29.51
2023-03-21T14:06:22.718Z,29.91
2023-03-21T14:07:22.757Z,29.90
2023-03-21T14:08:36.483Z,29.95
2023-03-21T14:10:22.749Z,29.99
2023-03-21T14:11:22.692Z,29.86
2023-03-21T14:12:22.695Z,29.93
2023-03-21T14:14:22.790Z,29.95
2023-03-21T14:15:22.681Z,29.79
2023-03-21T14:16:22.653Z,29.88
2023-03-21T14:17:22.666Z,29.93
2023-03-21T14:18:27.980Z,29.86
2023-03-21T14:21:24.676Z,29.76
2023-03-21T14:22:22.630Z,30.00
2023-03-21T14:23:22.632Z,29.90
2023-03-21T14:24:22.645Z,29.98
2023-03-21T14:25:24.344Z,29.29
2023-03-21T14:26:25.057Z,29.46
2023-03-21T14:27:23.284Z,30.17
2023-03-21T14:28:22.633Z,29.74
2023-03-21T14:29:26.441Z,29.46
2023-03-21T14:30:22.737Z,29.88
2023-03-21T14:31:22.658Z,30.03
2023-03-21T14:32:22.681Z,30.10
2023-03-21T14:33:22.605Z,30.06
2023-03-21T14:34:22.611Z,29.81
2023-03-21T14:35:22.613Z,29.51
2023-03-21T14:36:22.612Z,29.91
2023-03-21T14:37:22.624Z,30.14
2023-03-21T14:38:22.570Z,30.01
2023-03-21T14:39:22.571Z,30.01
2023-03-21T14:40:22.582Z,30.27
2023-03-21T14:41:22.607Z,30.21
2023-03-21T14:42:22.660Z,29.91
2023-03-21T14:43:22.531Z,30.33
2023-03-21T14:44:22.541Z,30.34
2023-03-21T14:45:22.530Z,29.77
2023-03-21T14:46:22.601Z,29.67
2023-03-21T14:47:22.531Z,30.23
2023-03-21T14:48:22.553Z,29.68
2023-03-21T14:49:22.508Z,30.24
2023-03-21T14:50:22.516Z,30.40
2023-03-21T14:51:22.489Z,30.22
2023-03-21T14:52:22.498Z,30.06
2023-03-21T14:53:22.480Z,30.28
2023-03-21T14:54:22.476Z,30.02
2023-03-21T14:55:22.460Z,30.12
2023-03-21T14:56:22.460Z,29.97
2023-03-21T14:57:22.475Z,29.36
2023-03-21T14:58:22.425Z,30.07
2023-03-21T14:59:22.414Z,29.74
2023-03-21T15:00:22.414Z,29.84
2023-03-21T15:01:22.479Z,30.17
2023-03-21T15:02:22.582Z,29.94
2023-03-21T15:03:22.399Z,30.25
2023-03-21T15:04:22.379Z,30.07
2023-03-21T15:05:22.484Z,29.38
2023-03-21T15:06:22.429Z,30.05
2023-03-21T15:07:22.407Z,29.99
2023-03-21T15:08:22.371Z,29.68
2023-03-21T15:09:22.446Z,29.71
2023-03-21T15:10:22.390Z,29.54
2023-03-21T15:11:22.356Z,29.41
2023-03-21T15:12:22.360Z,29.10
2023-03-21T15:13:22.371Z,29.73
2023-03-21T15:14:22.377Z,29.52
2023-03-21T15:15:22.547Z,29.46
2023-03-21T15:16:22.419Z,28.83
2023-03-21T15:17:22.290Z,29.13
2023-03-21T15:18:22.401Z,29.30
2023-03-21T15:19:22.310Z,29.14
2023-03-21T15:20:22.310Z,29.17
2023-03-21T15:21:22.325Z,29.03
2023-03-21T15:22:22.258Z,29.09
2023-03-21T15:23:22.266Z,28.88
2023-03-21T15:24:22.235Z,29.00
2023-03-21T15:25:22.286Z,29.30
2023-03-21T15:26:22.300Z,29.07
2023-03-21T15:27:22.274Z,28.75
2023-03-21T15:28:22.230Z,28.78
2023-03-21T15:29:22.242Z,28.94
2023-03-21T15:30:22.224Z,28.93
2023-03-21T15:31:22.233Z,28.73
2023-03-21T15:32:22.221Z,29.02
2023-03-21T15:33:22.203Z,29.31
2023-03-21T15:34:22.260Z,29.45
2023-03-21T15:35:22.175Z,29.37
2023-03-21T15:36:22.230Z,29.05
2023-03-21T15:37:22.191Z,28.88
2023-03-21T15:38:22.166Z,28.68
2023-03-21T15:39:22.155Z,28.83
2023-03-21T15:40:22.153Z,28.96
2023-03-21T15:41:22.139Z,28.76
2023-03-21T15:42:22.113Z,28.43
2023-03-21T15:43:22.165Z,29.14
2023-03-21T15:44:22.115Z,28.98
2023-03-21T15:45:22.132Z,28.90
2023-03-21T15:46:22.848Z,28.94
2023-03-21T15:47:22.072Z,28.99
2023-03-21T15:48:22.232Z,29.00
2023-03-21T15:49:22.061Z,29.13
2023-03-21T15:50:22.314Z,29.13
2023-03-21T15:51:22.119Z,29.18
2023-03-21T15:52:22.070Z,29.10
2023-03-21T15:53:22.083Z,28.94
2023-03-21T15:54:22.076Z,28.69
2023-03-21T15:55:22.043Z,29.04
2023-03-21T15:56:22.040Z,28.25
2023-03-21T15:57:22.094Z,29.11
2023-03-21T15:58:22.081Z,28.76
2023-03-21T15:59:22.016Z,28.74
2023-03-21T16:00:22.041Z,28.67
2023-03-21T16:01:22.204Z,29.00
2023-03-21T16:03:22.185Z,28.61
2023-03-21T16:04:22.069Z,28.99
2023-03-21T16:05:22.113Z,29.15
2023-03-21T16:06:22.207Z,29.01
2023-03-21T16:07:22.074Z,28.97
2023-03-21T16:08:22.133Z,29.10
2023-03-21T16:09:22.119Z,29.04
2023-03-21T16:10:22.092Z,29.06
2023-03-21T16:11:22.092Z,29.02
2023-03-21T16:12:22.172Z,29.02
2023-03-21T16:13:22.143Z,29.19
2023-03-21T16:14:22.111Z,29.17
2023-03-21T16:15:22.098Z,29.17
2023-03-21T16:16:22.191Z,29.19
2023-03-21T16:17:22.104Z,29.17
2023-03-21T16:18:22.140Z,29.12
2023-03-21T16:19:22.130Z,29.15
2023-03-21T16:20:22.133Z,29.13
2023-03-21T16:21:22.151Z,29.21
2023-03-21T16:22:22.136Z,29.17
2023-03-21T16:23:22.160Z,29.20
2023-03-21T16:24:22.144Z,29.19
2023-03-21T16:25:22.155Z,29.17
2023-03-21T16:26:22.150Z,29.24
2023-03-21T16:27:22.175Z,29.21
2023-03-21T16:28:22.181Z,29.23
2023-03-21T16:29:22.118Z,29.27
2023-03-21T16:30:22.173Z,29.26
2023-03-21T16:31:22.177Z,29.20
2023-03-21T16:32:22.159Z,29.24
2023-03-21T16:33:22.160Z,29.24
2023-03-21T16:34:22.195Z,29.27
2023-03-21T16:35:23.624Z,29.30
2023-03-21T16:36:22.187Z,29.32
2023-03-21T16:37:22.185Z,29.31
2023-03-21T16:38:22.193Z,29.29
2023-03-21T16:39:22.246Z,29.32
2023-03-21T16:40:22.304Z,29.32
2023-03-21T16:41:22.230Z,29.25
2023-03-21T16:42:22.274Z,29.33
2023-03-21T16:43:22.259Z,29.31
2023-03-21T16:44:22.266Z,29.33
2023-03-21T16:45:22.285Z,29.32
2023-03-21T16:46:22.432Z,29.30
2023-03-21T16:47:22.298Z,29.35
2023-03-21T16:48:22.344Z,29.39
2023-03-21T16:49:22.346Z,29.32
2023-03-21T16:50:22.364Z,29.32
2023-03-21T16:51:24.291Z,29.36
2023-03-21T16:52:23.986Z,29.39
2023-03-21T16:53:22.373Z,29.30
2023-03-21T16:54:22.382Z,29.44
2023-03-21T16:55:22.362Z,29.34
2023-03-21T16:56:22.350Z,29.40
2023-03-21T16:57:22.314Z,29.41
2023-03-21T16:58:22.335Z,29.43
2023-03-21T16:59:22.333Z,29.44
2023-03-21T17:00:22.341Z,29.43
2023-03-21T17:01:22.292Z,29.38
2023-03-21T17:02:22.317Z,29.44
2023-03-21T17:03:22.307Z,29.33
2023-03-21T17:04:22.272Z,29.40
2023-03-21T17:05:22.281Z,29.34
2023-03-21T17:06:22.324Z,29.31
2023-03-21T17:07:22.260Z,29.35
2023-03-21T17:08:22.256Z,29.32
2023-03-21T17:09:22.254Z,29.38
2023-03-21T17:10:22.263Z,29.41
2023-03-21T17:11:22.221Z,29.42
2023-03-21T17:12:22.223Z,29.44
2023-03-21T17:13:22.223Z,29.38
2023-03-21T17:14:22.249Z,29.35
2023-03-21T17:15:22.210Z,29.42
2023-03-21T17:16:22.262Z,29.45
2023-03-21T17:17:22.196Z,29.46
2023-03-21T17:18:22.217Z,29.47
2023-03-21T17:19:22.176Z,29.45
2023-03-21T17:20:22.178Z,29.46
2023-03-21T17:21:22.175Z,29.41
2023-03-21T17:22:22.163Z,29.44
2023-03-21T17:23:22.181Z,29.46
2023-03-21T17:24:22.159Z,29.41
2023-03-21T17:25:22.132Z,29.50
2023-03-21T17:26:22.124Z,29.49
2023-03-21T17:27:22.120Z,29.42
2023-03-21T17:28:22.114Z,29.52
2023-03-21T17:29:22.121Z,29.46
2023-03-21T17:30:22.095Z,29.43
2023-03-21T17:31:22.101Z,29.49
2023-03-21T17:32:22.095Z,29.50
2023-03-21T17:33:22.099Z,29.50
2023-03-21T17:34:22.066Z,29.42
2023-03-21T17:35:22.113Z,29.35
2023-03-21T17:36:22.074Z,29.45
2023-03-21T17:37:22.062Z,29.42
2023-03-21T17:38:22.079Z,29.43
2023-03-21T17:39:22.053Z,29.49
2023-03-21T17:40:22.020Z,29.44
2023-03-21T17:41:22.060Z,29.43
2023-03-21T17:42:22.042Z,29.39
2023-03-21T17:43:22.047Z,29.39
2023-03-21T17:44:22.028Z,29.40
2023-03-21T17:45:22.056Z,29.40
2023-03-21T17:46:22.057Z,29.40
2023-03-21T17:47:22.015Z,29.33
2023-03-21T17:48:22.065Z,29.46
2023-03-21T17:49:21.988Z,29.41
2023-03-21T17:50:21.980Z,29.42
2023-03-21T17:51:21.985Z,29.38
2023-03-21T17:52:22.758Z,29.43
2023-03-21T17:53:21.979Z,29.41
2023-03-21T17:54:21.952Z,29.41
2023-03-21T17:55:21.966Z,29.46
2023-03-21T17:56:21.960Z,29.37
2023-03-21T17:57:21.944Z,29.39
2023-03-21T17:58:21.953Z,29.41
2023-03-21T17:59:21.947Z,29.40
2023-03-21T18:00:21.913Z,29.43
2023-03-21T18:01:21.982Z,29.37
2023-03-21T18:02:21.974Z,29.38
2023-03-21T18:03:22.015Z,29.41
2023-03-21T18:04:22.051Z,29.36
2023-03-21T18:05:22.088Z,29.36
2023-03-21T18:06:22.099Z,29.38
2023-03-21T18:07:40.186Z,29.35
2023-03-21T18:08:23.122Z,29.31
2023-03-21T18:09:22.134Z,29.40
2023-03-21T18:10:22.087Z,29.31
2023-03-21T18:11:22.103Z,29.38
2023-03-21T18:12:22.071Z,29.38
2023-03-21T18:13:22.085Z,29.35
2023-03-21T18:14:27.909Z,29.35
2023-03-21T18:15:23.693Z,29.35
2023-03-21T18:16:22.154Z,29.37
2023-03-21T18:17:22.041Z,29.34
2023-03-21T18:18:22.091Z,29.35
2023-03-21T18:19:22.047Z,29.34
2023-03-21T18:20:22.561Z,29.33
2023-03-21T18:21:23.010Z,29.27
2023-03-21T18:22:22.003Z,29.32
2023-03-21T18:23:22.020Z,29.30
2023-03-21T18:24:22.033Z,29.28
2023-03-21T18:25:21.992Z,29.35
2023-03-21T18:26:23.971Z,29.35
2023-03-21T18:27:22.008Z,29.24
2023-03-21T18:28:22.316Z,29.35
2023-03-21T18:30:45.100Z,29.32
2023-03-21T18:31:23.609Z,29.32
2023-03-21T18:32:21.974Z,29.33
2023-03-21T18:33:21.971Z,29.20
2023-03-21T18:34:21.978Z,29.30
2023-03-21T18:35:21.944Z,29.25
2023-03-21T18:36:25.616Z,29.29
2023-03-21T18:37:22.982Z,29.28
2023-03-21T18:38:21.965Z,29.31
2023-03-21T18:39:21.928Z,29.27
2023-03-21T18:40:21.904Z,29.22
2023-03-21T18:41:21.900Z,29.22
2023-03-21T18:42:23.314Z,29.23
2023-03-21T18:44:24.579Z,29.28
2023-03-21T18:45:21.864Z,29.19
2023-03-21T18:46:21.887Z,29.23
2023-03-21T18:47:21.879Z,29.25
2023-03-21T18:48:21.918Z,29.22
2023-03-21T18:50:05.438Z,29.28
2023-03-21T18:50:22.854Z,29.22
2023-03-21T18:51:21.874Z,29.25
2023-03-21T18:52:21.823Z,29.19
2023-03-21T18:53:21.850Z,29.21
2023-03-21T18:54:21.840Z,29.25
2023-03-21T18:55:30.721Z,29.21
2023-03-21T18:57:13.083Z,29.19
2023-03-21T18:57:39.097Z,29.12
2023-03-21T18:58:22.783Z,29.13
2023-03-21T18:59:21.798Z,29.19
2023-03-21T19:00:21.857Z,29.15
2023-03-21T19:01:21.922Z,29.20
2023-03-21T19:02:21.774Z,29.16
2023-03-21T19:03:34.181Z,29.29
2023-03-21T19:04:29.339Z,29.22
2023-03-21T19:05:22.824Z,29.16
2023-03-21T19:06:21.746Z,29.10
2023-03-21T19:07:21.722Z,29.16
2023-03-21T19:08:21.747Z,29.13
2023-03-21T19:09:29.345Z,29.17
2023-03-21T19:10:22.898Z,29.13
2023-03-21T19:11:22.368Z,29.15
2023-03-21T19:12:21.712Z,29.10
2023-03-21T19:13:21.952Z,29.16
2023-03-21T19:14:21.700Z,29.17
2023-03-21T19:15:21.803Z,29.16
2023-03-21T19:16:26.483Z,29.16
2023-03-21T19:18:26.113Z,29.12
2023-03-21T19:18:41.556Z,29.07
2023-03-21T19:19:22.692Z,29.13
2023-03-21T19:20:21.650Z,29.12
2023-03-21T19:21:21.640Z,29.15
2023-03-21T19:22:21.649Z,29.09
2023-03-21T19:23:21.663Z,29.16
2023-03-21T19:24:27.479Z,29.22
2023-03-21T19:25:22.639Z,29.10
2023-03-21T19:26:21.614Z,29.12
2023-03-21T19:27:21.610Z,29.10
2023-03-21T19:28:21.591Z,29.06
2023-03-21T19:29:21.593Z,29.15
2023-03-21T19:30:21.599Z,29.06
2023-03-21T19:31:21.581Z,29.12
2023-03-21T19:32:21.574Z,29.10
2023-03-21T19:33:21.585Z,29.09
2023-03-21T19:34:21.559Z,29.09
2023-03-21T19:35:21.836Z,29.03
2023-03-21T19:36:22.880Z,29.14
2023-03-21T19:37:21.536Z,29.13
2023-03-21T19:38:21.576Z,29.06
2023-03-21T19:39:21.686Z,29.14
2023-03-21T19:40:21.676Z,29.12
2023-03-21T19:41:21.718Z,29.07
2023-03-21T19:42:21.952Z,29.03
2023-03-21T19:43:33.127Z,29.00
2023-03-21T19:44:22.783Z,29.01
2023-03-21T19:45:21.784Z,29.00
2023-03-21T19:46:21.794Z,29.03
2023-03-21T19:47:22.297Z,29.07
2023-03-21T19:48:23.438Z,29.09
2023-03-21T19:49:22.243Z,29.00
2023-03-21T19:51:30.808Z,28.96
2023-03-21T19:52:22.738Z,29.01
2023-03-21T19:53:21.731Z,28.94
2023-03-21T19:54:21.682Z,28.97
2023-03-21T19:55:21.704Z,28.96
2023-03-21T19:56:24.605Z,29.06
2023-03-21T19:57:22.691Z,29.03
2023-03-21T19:58:22.804Z,28.97
2023-03-21T19:59:21.694Z,28.97
2023-03-21T20:00:21.689Z,28.96
2023-03-21T20:01:21.733Z,29.01
2023-03-21T20:02:34.925Z,29.00
2023-03-21T20:03:22.697Z,29.01
2023-03-21T20:04:21.653Z,29.00
2023-03-21T20:05:21.613Z,28.96
2023-03-21T20:06:21.600Z,28.97
2023-03-21T20:07:21.617Z,28.94
2023-03-21T20:08:21.971Z,28.94
2023-03-21T20:10:22.580Z,28.97
2023-03-21T20:11:21.591Z,28.97
2023-03-21T20:12:21.580Z,28.91
2023-03-21T20:13:21.573Z,29.00
2023-03-21T20:14:21.562Z,28.99
2023-03-21T20:15:22.977Z,28.94
2023-03-21T20:16:21.656Z,28.93
2023-03-21T20:17:21.661Z,28.93
2023-03-21T20:18:21.560Z,28.97
2023-03-21T20:19:21.550Z,28.97
2023-03-21T20:20:21.540Z,28.88
2023-03-21T20:21:25.587Z,28.93
2023-03-21T20:22:31.161Z,28.91
2023-03-21T20:23:22.511Z,28.97
2023-03-21T20:24:21.495Z,28.91
2023-03-21T20:25:21.472Z,28.84
2023-03-21T20:26:21.469Z,28.84
2023-03-21T20:27:21.493Z,28.86
2023-03-21T20:28:25.784Z,28.93
2023-03-21T20:30:22.462Z,28.90
2023-03-21T20:31:21.455Z,28.91
2023-03-21T20:32:21.477Z,28.84
2023-03-21T20:33:21.439Z,28.91
2023-03-21T20:34:21.445Z,28.93
2023-03-21T20:35:46.000Z,28.83
2023-03-21T20:36:39.750Z,28.91
2023-03-21T20:37:22.465Z,28.87
2023-03-21T20:38:21.416Z,28.87
2023-03-21T20:39:21.380Z,28.88
2023-03-21T20:40:21.444Z,28.81
2023-03-21T20:41:21.377Z,28.87
2023-03-21T20:42:21.387Z,28.90
2023-03-21T20:44:08.825Z,28.87
2023-03-21T20:45:22.325Z,28.85
2023-03-21T20:46:21.361Z,28.84
2023-03-21T20:47:21.358Z,28.86
2023-03-21T20:48:21.388Z,28.78
2023-03-21T20:49:21.317Z,28.81
2023-03-21T20:50:22.231Z,28.80
2023-03-21T20:53:22.300Z,28.85
2023-03-21T20:54:21.313Z,28.84
2023-03-21T20:55:21.305Z,28.86
2023-03-21T20:56:21.291Z,28.80
2023-03-21T20:57:21.279Z,28.83
2023-03-21T20:58:51.649Z,28.83
2023-03-21T20:59:27.372Z,28.87
2023-03-21T21:00:22.374Z,28.87
2023-03-21T21:01:21.266Z,28.83
2023-03-21T21:02:21.256Z,28.70
2023-03-21T21:03:21.244Z,28.81
2023-03-21T21:04:21.233Z,28.84
2023-03-21T21:05:28.100Z,28.80
2023-03-21T21:06:22.248Z,28.77
2023-03-21T21:07:21.294Z,28.74
2023-03-21T21:08:21.213Z,28.78
2023-03-21T21:09:21.183Z,28.78
2023-03-21T21:10:22.297Z,28.71
2023-03-21T21:12:05.013Z,28.75
2023-03-21T21:12:22.208Z,28.70
2023-03-21T21:13:21.194Z,28.77
2023-03-21T21:14:21.159Z,28.80
2023-03-21T21:15:21.180Z,28.83
2023-03-21T21:16:21.191Z,28.78
2023-03-21T21:17:46.689Z,28.77
2023-03-21T21:18:22.173Z,28.75
2023-03-21T21:19:21.124Z,28.77
2023-03-21T21:20:21.142Z,28.77
2023-03-21T21:21:21.130Z,28.71
2023-03-21T21:22:21.131Z,28.71
2023-03-21T21:23:21.101Z,28.77
2023-03-21T21:24:21.118Z,28.74
2023-03-21T21:25:21.129Z,28.74
2023-03-21T21:26:21.106Z,28.77
2023-03-21T21:27:21.106Z,28.75
2023-03-21T21:28:21.129Z,28.68
2023-03-21T21:29:21.193Z,28.71
2023-03-21T21:30:21.239Z,28.72
2023-03-21T21:31:21.345Z,28.77
2023-03-21T21:32:21.389Z,28.71
2023-03-21T21:33:21.432Z,28.75
2023-03-21T21:34:21.495Z,28.57
2023-03-21T21:35:21.582Z,28.58
2023-03-21T21:36:21.632Z,28.68
2023-03-21T21:37:21.663Z,28.65
2023-03-21T21:38:21.755Z,28.67
2023-03-21T21:39:21.806Z,28.69
2023-03-21T21:40:21.874Z,28.71
2023-03-21T21:41:21.951Z,28.65
2023-03-21T21:42:22.007Z,28.64
2023-03-21T21:43:22.066Z,28.69
2023-03-21T21:44:22.151Z,28.68
2023-03-21T21:45:22.182Z,28.65
2023-03-21T21:46:22.298Z,28.71
2023-03-21T21:47:22.314Z,28.69
2023-03-21T21:48:22.410Z,28.63
2023-03-21T21:49:22.408Z,28.65
2023-03-21T21:50:22.614Z,28.65
2023-03-21T21:51:22.558Z,28.54
2023-03-21T21:52:22.646Z,28.63
2023-03-21T21:53:22.695Z,28.63
2023-03-21T21:54:22.730Z,28.62
2023-03-21T21:55:22.796Z,28.60
2023-03-21T21:56:22.881Z,28.45
2023-03-21T21:57:22.961Z,28.61
2023-03-21T21:58:22.962Z,28.65
2023-03-21T21:59:23.026Z,28.62
2023-03-21T22:00:23.101Z,28.57
2023-03-21T22:01:23.186Z,28.58
2023-03-21T22:02:23.211Z,28.58
2023-03-21T22:03:23.400Z,28.62
2023-03-21T22:04:23.359Z,28.60
2023-03-21T22:05:23.425Z,28.54
2023-03-21T22:20:24.316Z,28.62
2023-03-21T22:21:24.362Z,28.63
2023-03-21T22:22:24.445Z,28.47
2023-03-21T22:23:24.482Z,28.47
2023-03-21T22:24:24.596Z,28.54
2023-03-21T22:25:24.653Z,28.55
2023-03-21T22:26:24.732Z,28.58
2023-03-21T22:27:24.757Z,28.56
2023-03-21T22:28:24.835Z,28.55
2023-03-21T22:29:24.867Z,28.48
2023-03-21T22:30:24.922Z,28.47
2023-03-21T22:31:24.994Z,28.53
2023-03-21T22:32:25.061Z,28.59
2023-03-21T22:33:25.154Z,28.50
2023-03-21T22:34:25.203Z,28.54
2023-03-21T22:35:25.326Z,28.54
2023-03-21T22:36:25.289Z,28.46
2023-03-21T22:37:25.377Z,28.52
2023-03-21T22:38:25.445Z,28.54
2023-03-21T22:39:25.523Z,28.47
2023-03-21T22:40:25.561Z,28.50
2023-03-21T22:41:25.661Z,28.50
2023-03-21T22:42:25.697Z,28.47
2023-03-21T22:43:25.771Z,28.48
2023-03-21T22:44:25.860Z,28.42
2023-03-21T22:45:25.883Z,28.45
2023-03-21T22:46:26.012Z,28.42
2023-03-21T22:47:25.985Z,28.52
2023-03-21T22:48:26.136Z,28.49
2023-03-21T22:49:26.137Z,28.47
2023-03-21T22:50:26.176Z,28.40
2023-03-21T22:51:26.280Z,28.39
2023-03-21T22:52:26.309Z,28.49
2023-03-21T22:53:26.394Z,28.49
2023-03-21T22:54:26.423Z,28.38
2023-03-21T22:55:26.512Z,28.35
2023-03-21T22:56:26.559Z,28.46
2023-03-21T22:57:26.630Z,28.45
2023-03-21T22:58:26.690Z,28.49
2023-03-21T22:59:26.781Z,28.50
2023-03-21T23:00:26.877Z,28.42
2023-03-21T23:01:26.949Z,28.34
2023-03-21T23:02:26.948Z,28.40
2023-03-21T23:03:27.002Z,28.41
2023-03-21T23:04:27.140Z,28.46
2023-03-21T23:05:27.154Z,28.41
2023-03-21T23:06:27.175Z,28.42
2023-03-21T23:07:27.274Z,28.35
2023-03-21T23:08:27.324Z,28.35
2023-03-21T23:09:27.391Z,28.36
2023-03-21T23:10:27.436Z,28.39
2023-03-21T23:11:27.483Z,28.29
2023-03-21T23:12:27.560Z,28.44
2023-03-21T23:13:27.624Z,28.36
2023-03-21T23:14:27.686Z,28.41
2023-03-21T23:15:27.773Z,28.39
2023-03-21T23:16:27.833Z,28.32
2023-03-21T23:17:27.866Z,28.40
2023-03-21T23:18:27.900Z,28.35
2023-03-21T23:19:27.969Z,28.36
2023-03-21T23:20:28.085Z,28.34
2023-03-21T23:21:28.103Z,28.22
2023-03-21T23:22:28.171Z,28.31
2023-03-21T23:23:28.225Z,28.34
2023-03-21T23:24:28.300Z,28.35
2023-03-21T23:25:28.355Z,28.36
2023-03-21T23:26:28.470Z,28.35
2023-03-21T23:27:28.512Z,28.31
2023-03-21T23:28:28.550Z,28.31
2023-03-21T23:29:28.604Z,28.36
2023-03-21T23:30:28.681Z,28.33
2023-03-21T23:31:28.802Z,28.34
2023-03-21T23:32:28.815Z,28.32
2023-03-21T23:33:28.867Z,28.35
2023-03-21T23:34:28.910Z,28.26
2023-03-21T23:35:29.061Z,28.28
2023-03-21T23:36:29.034Z,28.36
2023-03-21T23:37:29.098Z,28.33
2023-03-21T23:38:29.178Z,28.19
2023-03-21T23:39:29.242Z,28.28
2023-03-21T23:40:29.322Z,28.35
2023-03-21T23:41:29.354Z,28.25
2023-03-21T23:42:29.427Z,28.26
2023-03-21T23:43:29.463Z,28.28
2023-03-21T23:44:29.553Z,28.22
2023-03-21T23:45:29.582Z,28.23
2023-03-21T23:46:29.718Z,28.09
2023-03-21T23:47:29.712Z,28.23
2023-03-21T23:48:29.811Z,28.25
2023-03-21T23:49:29.906Z,28.21
2023-03-21T23:50:33.457Z,28.27
2023-03-21T23:51:34.600Z,28.18
2023-03-21T23:52:29.895Z,28.25
2023-03-21T23:53:29.901Z,28.27
2023-03-21T23:54:29.884Z,28.31
2023-03-21T23:55:29.879Z,28.16
2023-03-21T23:56:29.891Z,28.21
2023-03-21T23:57:29.896Z,28.25
2023-03-21T23:58:29.845Z,28.21
2023-03-21T23:59:29.858Z,28.16
